Change the Weather History Date:

Sunday, May 19, 2013

  Actual Average (KAMA) Record (KAMA)
Temperature  
Mean Temperature 68 °F 67 °F  
Max Temperature 87 °F 80 °F 99 °F (1996)
Min Temperature 49 °F 53 °F 33 °F (1971)
Degree Days  
Heating Degree Days 0 2  
Month to date heating degree days 66  
Since 1 July heating degree days 4154  
Cooling Degree Days 3 4  
Month to date cooling degree days 45  
Year to date cooling degree days 66  
Growing Degree Days 18 (Base 50)    
Moisture  
Dew Point 23 °F    
Average Humidity 19    
Maximum Humidity 40    
Minimum Humidity 9    
Precipitation  
Precipitation 0.00 in 0.07 in 1.18 in (1901)
Month to date precipitation 1.15  
Year to date precipitation 5.22  
Snow  
Snow 0.00 in 0.00 in T in (1950)
Month to date snowfall 0.2  
Since 1 July snowfall 17.8  
Snow Depth -    
Sea Level Pressure  
Sea Level Pressure 29.78 in    
Wind  
Wind Speed 11 mph (West)    
Max Wind Speed 26 mph    
Max Gust Speed 39 mph    
Visibility 10 miles    
Events      
T = Trace of Precipitation, MM = Missing Value Source: NWS Daily Summary

Daily Weather History Graph

Daily Weather History Graph

Search for Another Location

Airport or City:

Trip Planner

Search our weather history database for the weather conditions in past years. The results will help you decide how hot, cold, wet, or windy it might be!

Date:

Astronomy

May. 19, 2013 Rise Set
Actual Time 6:43 AM CDT 8:48 PM CDT
Civil Twilight 6:14 AM CDT 9:17 PM CDT
Nautical Twilight 5:40 AM CDT 9:51 PM CDT
Astronomical Twilight 5:03 AM CDT 10:29 PM CDT
Moon 3:08 PM CDT (5/19) 2:53 AM CDT (5/19)
Length of Visible Light 15h 02m
Length of Day
14h 05m
Waxing Gibbous, 65% of the Moon is Illuminated
May 19
Waxing Gibbous
May 24
Full
May 31
Last Quarter
Jun 8
New
Jun 16
First Quarter

Hourly Weather History & Observations

Time (CDT) Temp. Dew Point Humidity Pressure Visibility Wind Dir Wind Speed Gust Speed Precip Events Conditions
12:15 AM 66.4 °F 23.0 °F 19% 29.77 in 7.0 mi West 5.8 mph - N/A   Clear
12:35 AM 60.6 °F 24.6 °F 25% 29.77 in 10.0 mi West 9.2 mph - N/A   Clear
1:15 AM 60.4 °F 22.1 °F 23% 29.77 in 10.0 mi West 9.2 mph - N/A   Clear
1:35 AM 58.5 °F 23.7 °F 26% 29.77 in 10.0 mi West 9.2 mph - N/A   Clear
1:55 AM 56.5 °F 23.9 °F 28% 29.77 in 10.0 mi West 9.2 mph - N/A   Clear
2:15 AM 59.0 °F 22.1 °F 24% 29.77 in 10.0 mi WNW 5.8 mph - N/A   Clear
2:35 AM 57.9 °F 22.1 °F 25% 29.77 in 10.0 mi West 8.1 mph - N/A   Clear
2:55 AM 57.2 °F 21.7 °F 25% 29.78 in 10.0 mi WNW 9.2 mph - N/A   Clear
3:15 AM 57.7 °F 21.7 °F 25% 29.78 in 10.0 mi West 9.2 mph - N/A   Clear
3:35 AM 55.9 °F 22.1 °F 27% 29.77 in 10.0 mi West 6.9 mph - N/A   Clear
3:55 AM 54.9 °F 22.6 °F 29% 29.78 in 7.0 mi SW 3.5 mph - N/A   Clear
4:15 AM 57.9 °F 22.1 °F 25% 29.79 in 10.0 mi WSW 3.5 mph - N/A   Clear
4:35 AM 58.3 °F 21.9 °F 25% 29.79 in 10.0 mi West 4.6 mph - N/A   Clear
4:55 AM 53.1 °F 21.9 °F 30% 29.79 in 10.0 mi NNW 4.6 mph - N/A   Clear
5:15 AM 52.9 °F 22.6 °F 31% 29.78 in 10.0 mi NW 4.6 mph - N/A   Clear
5:35 AM 50.9 °F 22.6 °F 33% 29.78 in 10.0 mi WNW 8.1 mph - N/A   Clear
5:55 AM 49.6 °F 23.2 °F 35% 29.79 in 10.0 mi WNW 6.9 mph - N/A   Clear
6:15 AM 50.0 °F 25.2 °F 38% 29.79 in 10.0 mi West 8.1 mph - N/A   Clear
6:35 AM 49.1 °F 25.0 °F 39% 29.79 in 10.0 mi West 5.8 mph - N/A   Clear
7:15 AM 52.0 °F 28.0 °F 40% 29.80 in 10.0 mi West 10.4 mph - N/A   Clear
7:35 AM 55.4 °F 27.7 °F 35% 29.80 in 10.0 mi West 10.4 mph - N/A   Clear
7:55 AM 58.6 °F 27.5 °F 30% 29.81 in 10.0 mi West 10.4 mph - N/A   Clear
8:15 AM 61.0 °F 28.4 °F 29% 29.81 in 10.0 mi WNW 9.2 mph - N/A   Clear
8:35 AM 64.4 °F 28.8 °F 26% 29.81 in 10.0 mi WNW 8.1 mph - N/A   Clear
8:55 AM 68.7 °F 29.1 °F 23% 29.82 in 10.0 mi WNW 11.5 mph - N/A   Clear
9:15 AM 71.2 °F 27.5 °F 20% 29.82 in 10.0 mi WNW 11.5 mph - N/A   Clear
9:55 AM 76.5 °F 28.2 °F 17% 29.82 in 10.0 mi WNW 17.3 mph 23.0 mph N/A   Clear
10:15 AM 77.0 °F 28.4 °F 17% 29.82 in 10.0 mi WNW 18.4 mph 24.2 mph N/A   Clear
10:35 AM 76.8 °F 28.6 °F 17% 29.81 in 10.0 mi NW 20.7 mph 26.5 mph N/A   Clear
10:55 AM 77.0 °F 27.7 °F 16% 29.82 in 10.0 mi WNW 18.4 mph 21.9 mph N/A   Clear
11:15 AM 77.7 °F 26.6 °F 15% 29.82 in 10.0 mi West 16.1 mph 27.6 mph N/A   Clear
11:35 AM 78.8 °F 26.2 °F 14% 29.81 in 10.0 mi WNW 15.0 mph 24.2 mph N/A   Clear
11:55 AM 79.3 °F 25.9 °F 14% 29.81 in 10.0 mi WNW 18.4 mph 26.5 mph N/A   Clear
12:15 PM 79.7 °F 25.3 °F 14% 29.81 in 10.0 mi WNW 12.7 mph 21.9 mph N/A   Clear
12:35 PM 79.9 °F 26.1 °F 14% 29.81 in 10.0 mi WNW 12.7 mph 24.2 mph N/A   Clear
12:55 PM 81.7 °F 27.3 °F 14% 29.80 in 10.0 mi WNW 12.7 mph 20.7 mph N/A   Clear
1:15 PM 81.7 °F 26.4 °F 13% 29.80 in 10.0 mi NW 9.2 mph 23.0 mph N/A   Clear
1:35 PM 81.7 °F 25.5 °F 13% 29.79 in 10.0 mi West 18.4 mph 26.5 mph N/A   Clear
2:15 PM 84.0 °F 25.7 °F 12% 29.78 in 10.0 mi West 13.8 mph - N/A   Clear
2:35 PM 84.2 °F 25.3 °F 12% 29.77 in 10.0 mi West 15.0 mph 25.3 mph N/A   Clear
3:15 PM 85.3 °F 24.1 °F 11% 29.76 in 10.0 mi West 12.7 mph - N/A   Clear
3:35 PM 86.2 °F 23.4 °F 10% 29.75 in 10.0 mi West 24.2 mph - N/A   Clear
3:55 PM 86.4 °F 22.5 °F 10% 29.75 in 10.0 mi West 17.3 mph 39.1 mph N/A   Clear
4:15 PM 87.1 °F 21.7 °F 9% 29.74 in 10.0 mi North - - N/A   Clear
4:35 PM 84.4 °F 21.2 °F 10% 29.73 in 10.0 mi West 19.6 mph - N/A   Clear
4:55 PM 87.6 °F 21.7 °F 9% 29.73 in 10.0 mi North - - N/A   Clear
5:15 PM 87.3 °F 21.9 °F 9% 29.72 in 10.0 mi West 25.3 mph - N/A   Clear
5:35 PM 85.1 °F 22.6 °F 10% 29.71 in 10.0 mi West 21.9 mph - N/A   Clear
5:55 PM 84.9 °F 20.8 °F 9% 29.71 in 10.0 mi West 20.7 mph - N/A   Clear
6:15 PM 84.6 °F 20.3 °F 9% 29.72 in 7.0 mi North - - N/A   Clear
6:35 PM 85.1 °F 20.1 °F 9% 29.71 in 10.0 mi West 26.5 mph - N/A   Clear
6:55 PM 85.3 °F 20.8 °F 9% 29.72 in 10.0 mi North - - N/A   Clear
7:15 PM 84.6 °F 19.9 °F 9% 29.72 in 10.0 mi West 25.3 mph 36.8 mph N/A   Clear
7:35 PM 83.1 °F 21.2 °F 10% 29.73 in 10.0 mi West 18.4 mph - N/A   Clear
7:55 PM 82.6 °F 19.9 °F 10% 29.75 in 10.0 mi West 20.7 mph 34.5 mph N/A   Clear
8:15 PM 81.1 °F 21.0 °F 11% 29.76 in 10.0 mi West 23.0 mph 32.2 mph N/A   Clear
8:35 PM 79.0 °F 20.7 °F 11% 29.77 in 10.0 mi West 18.4 mph 23.0 mph N/A   Clear
8:55 PM 77.0 °F 18.5 °F 11% 29.78 in 10.0 mi West 15.0 mph - N/A   Clear
9:15 PM 74.3 °F 18.1 °F 12% 29.79 in 10.0 mi West 12.7 mph - N/A   Clear
9:35 PM 73.4 °F 18.5 °F 13% 29.79 in 3.0 mi West 11.5 mph - N/A   Haze
9:55 PM 69.6 °F 18.7 °F 14% 29.80 in 5.0 mi West 11.5 mph - N/A   Haze
10:15 PM 69.8 °F 19.4 °F 15% 29.80 in 3.0 mi West 10.4 mph - N/A   Haze
10:35 PM 70.5 °F 18.7 °F 14% 29.82 in 5.0 mi West 11.5 mph - N/A   Haze
10:55 PM 70.5 °F 18.1 °F 14% 29.82 in 7.0 mi West 11.5 mph - N/A   Clear
11:15 PM 65.5 °F 20.3 °F 18% 29.83 in 10.0 mi West 9.2 mph - N/A   Clear
11:35 PM 62.8 °F 22.5 °F 21% 29.83 in 10.0 mi West 9.2 mph - N/A   Clear
11:55 PM 65.5 °F 21.4 °F 19% 29.83 in 10.0 mi West 9.2 mph - N/A   Clear